Avilla, MO

10:49 AM CDT on October 02, 2014 (GMT -0500)
Springfield-Branson Regional | Change Station
CLOSE
Current Station
Airport
Location: Springfield,
Elevation: 1280 ft
Nearby Weather Stations

Elev 1280 ft 37.24 °N, 93.39 °W | Updated 57 minutes ago

Overcast
Overcast
69 °F
Feels Like 69 °F
N
14
Wind Variable Wind from SE

Today
High -- | Low -- °F
--% Chance of Precip.
Yesterday
High -- | Low -- °F
Precip. -- in
7:12 AM 6:58 PM
First Quarter, 60% visible
Pressure 29.78 in
Visibility 10.0 miles
Clouds Few 2600 ft
Scattered Clouds 4100 ft
Mostly Cloudy 11000 ft
Dew Point 65 °F
Humidity 87%
Rainfall 0.42 in
Snow Depth Not available.
UV 2 out of 12
Pollen .50 out of 12
Air Quality Not available.
Flu Activity Not available.
METAR KSGF 021452Z 14012KT 10SM -RA FEW026 SCT041 BKN110 21/18 A2982 RMK AO2 LTG DSNT NE RAB1353 TSB08E26 SLP085 P0001 60032 T02060183 58007

More Conditions Fewer Conditions

Pressure 29.78 in
Visibility 10.0 miles
Clouds Few 2600 ft
Scattered Clouds 4100 ft
Mostly Cloudy 11000 ft
Dew Point 65 °F
Humidity 87%
Rainfall 0.42 in
Snow Depth Not available.
UV 2 out of 12
Pollen .50 out of 12
Air Quality Not available.
Flu Activity Not available.
METAR KSGF 021452Z 14012KT 10SM -RA FEW026 SCT041 BKN110 21/18 A2982 RMK AO2 LTG DSNT NE RAB1353 TSB08E26 SLP085 P0001 60032 T02060183 58007

More Conditions Fewer Conditions

10-Day Weather Forecast

Almanac

Astronomy

Oct. 02, 2014 Rise Set
Actual Time 7:12 AM CDT 6:58 PM CDT
Civil Twilight 6:46 AM CDT 7:24 PM CDT
Nautical Twilight 6:16 AM CDT 7:54 PM CDT
Astronomical Twilight 5:46 AM CDT 8:24 PM CDT
Moon 2:58 PM CDT 12:37 AM CDT
Length of Visible Light 12h 37m
Length of Day
11h 45m
Tomorrow will be 2m 21s shorter.
First Quarter, 60% of the Moon is Illuminated
Today
First Quarter
Oct 8
Full
Oct 15
Last Quarter
Oct 23
New
Oct 30
First Quarter

Today's Extremes

State Highs State Lows

Community

WunderPhotos

Upload Photos

1,758,276 photos uploaded!

WunderBlogs® & News

Nearby

Snow Depth

Station Depth Elevation
No new snow has been reported.

Earthquake Activity

City Distance Mag. Time & Date
Parsons, Kansas 70 miles 3.0 7:33 PM CDT
2014-09-30
Minimum magnitude displayed is 2.5.

Coastal Water Temperatures

Place Temperature
No Stations Reporting

Nearby Weather Stations